DONNÉES MÉTÉO

HIER
Time Temp. Dewp. Hum. Directi La vitess Wind gust Bar. 1h Prec. 24h Prec.
00:04 15.4 11.8 79 279 1.7 2.8 1015.1 0.0000 0.0000
00:14 15.3 11.9 80 281 1.7 2.5 1015.2 0.0000 0.0000
00:24 15.2 12 81 288 1.7 2.8 1015.2 0.0000 0.0000
00:44 14.9 11.3 79 279 1.4 2.8 1015.5 0.0000 0.0000
00:54 14.7 11.1 79 275 1.7 2.8 1015.4 0.0000 0.0000
01:04 14.6 11.2 80 280 1.7 3.1 1015.5 0.0000 0.0000
01:15 14.5 11.3 81 285 1.7 3.1 1015.6 0.0000 0.0000
01:25 14.5 11.5 82 282 1.7 2.8 1015.7 0.0000 0.0000
01:34 14.4 11.2 81 284 1.7 3.3 1015.6 0.0000 0.0000
01:45 14.4 11.4 82 291 1.7 3.1 1015.5 0.0000 0.0000
01:55 14.3 11.3 82 282 1.7 3.1 1015.7 0.0000 0.0000
02:05 14.2 11 81 270 1.4 2.5 1015.6 0.0000 0.0000
02:15 14.1 10.9 81 282 1.4 2.8 1015.6 0.0000 0.0000
02:25 14 10.8 81 284 1.4 2.8 1015.7 0.0000 0.0000
02:35 13.9 10.9 82 284 1.4 2.5 1015.6 0.0000 0.0000
02:45 13.8 10.6 81 285 1.7 2.8 1015.6 0.0000 0.0000
02:56 13.7 10.5 81 277 1.4 2.8 1015.7 0.0000 0.0000
03:06 13.6 10.4 81 286 1.7 2.8 1015.7 0.0000 0.0000
03:15 13.4 10.2 81 285 1.7 3.1 1015.6 0.0000 0.0000
03:25 13.3 10.1 81 279 1.4 2.8 1015.6 0.0000 0.0000
03:36 13.1 9.9 81 279 1.4 2.8 1015.7 0.0000 0.0000
03:46 13 10 82 286 1.4 3.1 1015.5 0.0000 0.0000
03:56 12.9 9.7 81 277 1.4 2.5 1015.5 0.0000 0.0000
04:06 12.8 9.6 81 270 1.4 2.8 1015.4 0.0000 0.0000
04:16 12.7 9.5 81 285 1.4 2.8 1015.4 0.0000 0.0000
04:26 12.6 9.4 81 282 1.4 3.3 1015.3 0.0000 0.0000
04:36 12.5 9.3 81 278 1.4 2.8 1015.4 0.0000 0.0000
04:46 12.4 9.2 81 270 1.4 2.8 1015.4 0.0000 0.0000
04:56 12.3 9.1 81 281 1.4 2.8 1015.4 0.0000 0.0000
05:06 12.2 8.9 80 281 1.4 3.1 1015.4 0.0000 0.0000
05:17 12.1 8.9 81 270 1.1 2.8 1015.5 0.0000 0.0000
05:27 12 8.8 81 287 1.7 3.6 1015.6 0.0000 0.0000
05:36 11.9 8.7 81 281 1.4 2.8 1015.6 0.1010 0.1000
05:46 11.8 8.6 81 278 1.4 3.1 1015.7 0.1010 0.1000
05:57 11.7 8.7 82 284 1.4 2.8 1015.7 0.1010 0.1000
06:07 11.6 8.5 81 270 1.4 2.8 1015.7 0.1010 0.1000
06:17 11.5 8.5 82 270 1.4 3.1 1015.8 0.1010 0.1000
06:27 11.4 8.3 81 270 1.1 2.8 1015.8 0.1010 0.1000
06:37 11.3 8.3 82 270 1.1 2.8 1015.8 0.0000 0.1000
06:47 11.3 8.3 82 259 0.8 2.2 1015.9 0.0000 0.1000
06:57 11.3 8.3 82 250 1.1 2.8 1016 0.0000 0.1000
07:08 11.3 8.5 83 252 1.1 2.8 1016.2 0.0000 0.1000
07:17 11.3 8.5 83 239 0.8 2.5 1016.2 0.0000 0.1000
07:27 11.4 8.8 84 239 1.1 2.8 1016.3 0.0000 0.1000
07:38 11.5 9.1 85 236 1.1 3.1 1016.4 0.0000 0.1000
07:48 11.7 9.4 86 229 1.1 2.8 1016.4 0.0000 0.1000
07:58 11.9 9.6 86 208 1.4 2.2 1016.4 0.0000 0.1000
08:07 12.1 10 87 213 1.7 2.5 1016.4 0.0000 0.1000
08:18 12.3 10.4 88 212 1.9 3.1 1016.5 0.0000 0.1000
08:28 12.6 10.7 88 216 1.9 3.1 1016.6 0.0000 0.1000
08:38 12.9 11.1 89 217 2.5 3.3 1016.7 0.0000 0.1000
08:48 13.2 11.4 89 223 2.5 3.6 1016.8 0.0000 0.1000
08:58 13.4 11.8 90 219 2.5 3.3 1016.7 0.0000 0.1000
09:08 13.7 11.9 89 218 2.2 3.3 1016.7 0.0000 0.1000
09:18 14.1 12 87 212 2.2 3.3 1016.8 0.0000 0.1000
09:29 14.4 12.1 86 219 2.5 3.3 1016.9 0.0000 0.1000
09:39 14.7 12.2 85 226 2.8 3.9 1016.9 0.0000 0.1000
09:48 15 12.3 84 225 1.7 2.5 1016.9 0.0000 0.1000
09:58 15.2 12.2 82 240 1.7 3.3 1016.8 0.0000 0.1000
10:09 15.5 12.3 81 257 3.1 6.1 1016.9 0.0000 0.1000
10:19 15.8 12.4 80 285 3.6 6.4 1017 0.0000 0.1000
10:29 16.1 11.9 76 319 1.7 3.1 1017 0.0000 0.1000
10:39 16.5 12.5 77 7 2.5 5.8 1017 0.0000 0.1000
10:49 16.7 12 74 1 2.8 7.2 1017 0.0000 0.1000
10:59 16.8 11.9 73 315 2.5 9.7 1017 0.0000 0.1000
11:09 16.9 11.4 70 299 2.8 4.7 1016.9 0.0000 0.1000
11:20 17.3 11.8 70 291 2.2 5.8 1016.8 0.0000 0.1000
11:29 17.4 11.4 68 312 2.5 7.2 1016.9 0.0000 0.1000
11:39 17.7 11.7 68 296 2.5 5.3 1016.8 0.0000 0.1000
11:50 17.9 11.7 67 293 3.1 5.6 1016.9 0.0000 0.1000
12:00 18.3 12.1 67 280 3.1 5 1016.9 0.0000 0.1000
12:10 18.7 12.2 66 280 3.3 5.3 1016.8 0.0000 0.1000
12:19 19.1 12.1 64 282 3.1 5.3 1016.8 0.0000 0.1000
12:30 19.3 11.8 62 285 3.3 5.6 1016.8 0.0000 0.1000
12:40 19.7 12.5 63 276 3.3 5.3 1016.7 0.0000 0.1000
12:50 20 12 60 278 3.1 6.7 1016.6 0.0000 0.1000
13:01 20.3 12.3 60 287 3.1 6.4 1016.5 0.0000 0.1000
13:10 20.6 12.1 58 284 3.1 5.8 1016.6 0.0000 0.1000
13:20 21 12.2 57 279 3.3 5 1016.5 0.0000 0.1000
13:30 21.5 12.6 57 270 3.3 5.8 1016.5 0.0000 0.1000
13:41 21.7 12.3 55 274 3.3 5.6 1016.6 0.0000 0.1000
13:51 22 12.3 54 280 3.3 5.8 1016.5 0.0000 0.1000
14:00 22.1 11.8 52 270 3.1 4.7 1016.5 0.0000 0.1000
14:11 22.5 12.5 53 270 3.1 5.6 1016.4 0.0000 0.1000
14:21 23 12.3 51 267 3.3 5.6 1016.4 0.0000 0.1000
14:31 23 11.7 49 267 3.3 5.6 1016.5 0.0000 0.1000
14:41 23 12 50 265 3.3 5.8 1016.4 0.0000 0.1000
14:51 23.2 12.2 50 270 3.3 5.3 1016.3 0.0000 0.1000
15:01 23.5 12.2 49 264 3.3 5.8 1016.2 0.0000 0.1000
15:11 23.2 11.6 48 289 3.3 5.6 1016.2 0.0000 0.1000
15:21 23.1 12.1 50 278 3.1 5.6 1016.1 0.0000 0.1000
15:32 23.4 12.4 50 270 3.3 5.6 1016 0.0000 0.1000
15:42 23.5 12.2 49 257 3.1 4.7 1016 0.0000 0.1000
15:51 23.5 11.5 47 255 3.1 5.6 1015.9 0.0000 0.1000
16:02 23.6 12 48 266 3.3 5.3 1015.8 0.0000 0.1000
16:12 23.8 12.1 48 262 3.3 5 1015.8 0.0000 0.1000
16:22 23.6 12 48 260 3.3 5.6 1015.6 0.0000 0.1000
16:32 23.7 12.4 49 246 3.3 4.7 1015.5 0.0000 0.1000
16:42 23.8 12.5 49 259 3.1 5.8 1015.4 0.0000 0.1000
16:52 23.9 12.2 48 251 3.3 5.3 1015.4 0.0000 0.1000
17:02 23.9 12.2 48 245 3.3 4.4 1015.3 0.0000 0.1000
17:13 24 12.3 48 240 3.6 5.3 1015.2 0.0000 0.1000
17:23 24.2 12.5 48 244 3.9 5.8 1015.1 0.0000 0.1000
17:32 24.2 11.9 46 242 3.9 5 1015 0.0000 0.1000
17:42 24 12.3 48 247 3.6 5 1015 0.0000 0.1000
17:53 23.9 12.2 48 256 3.3 4.7 1014.9 0.0000 0.1000
18:03 23.9 12.5 49 256 3.3 4.7 1014.8 0.0000 0.1000
18:13 23.8 11.8 47 254 3.3 6.4 1014.8 0.0000 0.1000
18:23 23.7 12.1 48 259 3.3 4.7 1014.7 0.0000 0.1000
18:33 23.6 12 48 281 3.3 5 1014.7 0.0000 0.1000
18:43 23.3 12 49 315 3.1 6.1 1014.6 0.0000 0.1000
18:53 23.1 12.1 50 314 2.8 5.8 1014.6 0.0000 0.1000
19:04 23.1 12.4 51 305 3.3 6.1 1014.6 0.0000 0.1000
19:14 23.5 12.8 51 277 3.1 5 1014.6 0.0000 0.1000
19:24 23.5 12.2 49 279 3.3 6.1 1014.6 0.0000 0.1000
19:34 23.4 11.8 48 331 3.1 5.3 1014.6 0.0000 0.1000
19:44 23.2 11.9 49 319 2.5 5.3 1014.6 0.0000 0.1000
19:54 23 12.3 51 273 2.8 5.8 1014.6 0.0000 0.1000
20:04 23.2 12.5 51 263 2.8 5.6 1014.6 0.0000 0.1000
20:15 23.2 12.8 52 293 2.8 5 1014.7 0.0000 0.1000
20:24 23 12.9 53 296 3.1 6.4 1014.7 0.0000 0.1000
20:34 22.7 12.9 54 265 4.2 7.2 1014.9 0.0000 0.1000
20:44 22.4 12.9 55 249 4.4 6.9 1014.9 0.0000 0.1000
20:55 22.1 12.9 56 277 1.9 3.1 1014.9 0.0000 0.1000
21:05 21.8 12.9 57 270 1.4 2.8 1014.9 0.0000 0.1000
21:15 21.5 12.9 58 264 1.4 2.8 1014.9 0.0000 0.1000
21:25 21.3 13 59 270 1.4 2.2 1014.9 0.0000 0.1000
21:35 20.9 13.1 61 270 1.4 2.2 1015 0.0000 0.1000
21:45 20.6 13.1 62 262 1.4 1.9 1015 0.0000 0.1000
21:55 20.3 13 63 259 1.4 1.9 1015 0.0000 0.1000
22:06 19.9 12.9 64 262 1.4 1.9 1015 0.0000 0.1000
22:15 19.7 12.9 65 270 1.4 2.2 1015.1 0.0000 0.1000
22:25 19.4 12.9 66 270 1.4 1.9 1015.1 0.0000 0.1000
22:36 19.1 12.8 67 270 1.4 1.9 1015.1 0.0000 0.1000
22:46 18.8 12.8 68 270 1.4 2.8 1015.2 0.0000 0.1000
22:56 18.5 12.5 68 270 1.4 2.2 1015.3 0.0000 0.1000
23:05 18.3 12.5 69 277 1.4 2.5 1015.1 0.0000 0.1000
23:16 18.1 12.5 70 276 1.4 2.5 1015.1 0.0000 0.1000
23:26 17.9 12.4 70 282 1.7 2.5 1015.2 0.0000 0.1000
23:36 17.7 12.2 70 277 1.4 2.8 1015.2 0.0000 0.1000
23:46 17.5 12.2 71 277 1.4 2.5 1015.2 0.0000 0.1000
23:57 17.3 12.2 72 270 1.4 2.8 1015.2 0.0000

SATISTIQUES DU JOUR

2020-08-04
TEMPÉRATURE
MOYEN
17.8
MAXI
24.2
17:23
MINI
11.3
06:37
PRESSION
MOYEN
1015.8
MAXI
1017.0
10:19
MINI
1014.6
18:43
POINT DE ROSÉE
MOYEN
11.4
MAXI
13.1
21:35
MINI
8.3
06:27
HUMIDITÉ
MOYEN
68
MAXI
90
08:58
MINI
46
17:32
LA VITESSE DU VENT
MOYEN
2.3
MAXI
4.4
20:44
WIND GUST
MOYEN
4.1
MAXI
9.7
10:59
DIRECTION DU VENT
PREVAILING
W
73.2%
N
1.4
NE
0.0
E
0.0
SE
0.0
S
0.0
SW
16.2
W
73.2
NW
9.2
PRÉCIPITATIONS
RAIN HOUR
0.1
RAIN DAY
0.1
TEMPÉRATURE (°C)
MINI
11.3
MAXI
24.2
MOYEN
17.8
PRESSION (hpa)
MINI
1014.6
MAXI
1017.0
MOYEN
1015.8
DEVICE